Time;durP1;ratioP1;P1;durP2;ratioP2;P2;SDS_P1;SDS_P2;PMS_P1;PMS_P2;Temp;Humidity;BMP_temperature;BMP_pressure;BME280_temperature;BME280_humidity;BME280_pressure;Samples;Min_cycle;Max_cycle;Signal;HPM_P1;HPM_P2
2022/04/07 00:00:34;;;;;;;6.43;6.13;;;;;;;8.54;67.74;99919.56;4996420;28;20022;-66
2022/04/07 00:02:59;;;;;;;6.60;6.30;;;;;;;8.49;67.99;99920.06;4992536;28;20438;-66
2022/04/07 00:05:25;;;;;;;6.32;6.03;;;;;;;8.29;68.69;99905.63;4999741;28;20404;-66
2022/04/07 00:07:52;;;;;;;6.60;6.30;;;;;;;8.35;68.64;99904.13;5012215;28;20060;-67
2022/04/07 00:10:18;;;;;;;6.80;6.50;;;;;;;8.30;68.87;99909.94;4997248;28;20398;-67
2022/04/07 00:12:44;;;;;;;6.38;6.07;;;;;;;8.10;70.12;99898.19;5010834;28;20025;-67
2022/04/07 00:15:11;;;;;;;6.45;6.15;;;;;;;8.11;70.03;99892.72;5003744;28;20018;-67
2022/04/07 00:17:37;;;;;;;6.93;6.63;;;;;;;8.14;70.16;99896.81;4991608;28;20030;-67
2022/04/07 00:20:05;;;;;;;6.85;6.55;;;;;;;8.13;70.38;99885.44;5003878;28;20057;-66
2022/04/07 00:22:30;;;;;;;6.50;6.20;;;;;;;8.08;70.13;99893.06;4992343;28;20441;-67
2022/04/07 00:24:56;;;;;;;6.40;6.10;;;;;;;8.14;70.26;99888.88;4993517;28;20021;-67
2022/04/07 00:27:21;;;;;;;6.70;6.40;;;;;;;8.15;69.91;99893.16;4991935;28;20040;-67
2022/04/07 00:29:47;;;;;;;6.78;6.47;;;;;;;7.99;70.76;99889.63;4992631;28;20022;-68
2022/04/07 00:32:12;;;;;;;6.50;6.20;;;;;;;8.02;70.80;99880.56;4993294;28;20022;-67
2022/04/07 00:34:39;;;;;;;6.78;6.47;;;;;;;8.06;70.31;99887.13;4996685;28;20034;-67
2022/04/07 00:37:05;;;;;;;6.28;5.97;;;;;;;8.09;70.42;99889.44;4992329;28;20109;-67
2022/04/07 00:39:31;;;;;;;6.70;6.40;;;;;;;8.06;70.12;99886.28;4997795;28;20101;-67
2022/04/07 00:41:57;;;;;;;6.82;6.53;;;;;;;8.12;69.94;99885.59;4995963;28;20542;-67
2022/04/07 00:44:22;;;;;;;6.50;6.20;;;;;;;8.24;69.53;99882.41;4990860;28;20022;-67
2022/04/07 00:46:49;;;;;;;6.95;6.65;;;;;;;7.91;71.10;99873.81;5010009;28;20026;-67
2022/04/07 00:49:15;;;;;;;6.30;6.00;;;;;;;7.98;71.10;99888.00;5000080;28;20057;-67
2022/04/07 00:51:43;;;;;;;6.40;6.10;;;;;;;8.03;70.79;99883.00;4999798;28;20053;-67
2022/04/07 00:54:09;;;;;;;6.35;6.05;;;;;;;8.20;69.36;99875.81;5028336;28;20022;-67
2022/04/07 00:56:36;;;;;;;6.57;6.28;;;;;;;8.11;69.85;99876.03;5009157;28;20053;-67
2022/04/07 00:59:04;;;;;;;6.60;6.30;;;;;;;8.31;69.62;99885.16;5013830;28;20026;-68
2022/04/07 01:01:30;;;;;;;6.40;6.10;;;;;;;8.23;69.20;99887.88;4995880;28;20044;-68
2022/04/07 01:03:57;;;;;;;6.40;6.10;;;;;;;8.33;69.21;99880.50;4995701;28;20034;-67
2022/04/07 01:06:23;;;;;;;6.80;6.50;;;;;;;8.35;68.70;99875.91;4999680;28;20022;-67
2022/04/07 01:08:49;;;;;;;6.80;6.50;;;;;;;8.18;69.49;99864.59;4995520;28;20078;-66
2022/04/07 01:11:15;;;;;;;6.68;6.38;;;;;;;8.24;70.02;99869.19;5006474;28;20058;-66
2022/04/07 01:13:52;;;;;;;6.60;6.30;;;;;;;8.26;70.01;99866.38;4995742;28;20058;-67
2022/04/07 01:16:19;;;;;;;6.55;6.25;;;;;;;8.24;70.75;99860.44;4997126;28;20031;-66
2022/04/07 01:18:46;;;;;;;6.43;6.13;;;;;;;8.36;69.60;99861.69;4995256;28;20019;-67
2022/04/07 01:21:14;;;;;;;6.72;6.43;;;;;;;8.28;69.62;99857.25;4995316;28;20113;-67
2022/04/07 01:23:49;;;;;;;6.88;6.57;;;;;;;8.29;70.15;99855.44;4995460;28;20497;-67
2022/04/07 01:26:15;;;;;;;6.65;6.35;;;;;;;8.29;69.90;99853.59;5035587;28;20041;-68
2022/04/07 01:28:47;;;;;;;6.70;6.40;;;;;;;8.33;69.61;99838.22;4996391;28;20485;-67
2022/04/07 01:31:13;;;;;;;6.60;6.30;;;;;;;8.26;70.20;99832.84;4995111;28;20041;-67
2022/04/07 01:33:38;;;;;;;6.68;6.38;;;;;;;8.31;70.13;99841.06;5005709;28;20026;-66
2022/04/07 01:36:05;;;;;;;6.60;6.30;;;;;;;8.20;70.09;99840.63;4994627;28;20080;-67
2022/04/07 01:38:31;;;;;;;6.38;6.07;;;;;;;8.13;70.69;99842.34;5013895;28;20061;-67
2022/04/07 01:40:57;;;;;;;7.18;6.88;;;;;;;8.13;71.30;99847.63;5009957;28;20046;-67
2022/04/07 01:43:23;;;;;;;6.53;6.22;;;;;;;8.07;71.09;99843.84;5002847;28;20445;-67
2022/04/07 01:45:48;;;;;;;6.78;6.47;;;;;;;8.06;71.36;99833.47;5013213;28;20030;-67
2022/04/07 01:48:16;;;;;;;6.70;6.40;;;;;;;7.99;71.60;99846.53;5000132;28;20154;-67
2022/04/07 01:50:44;;;;;;;6.38;6.07;;;;;;;8.01;71.02;99832.19;5026448;28;20030;-66
2022/04/07 01:53:12;;;;;;;6.60;6.30;;;;;;;7.99;71.21;99834.16;4994935;28;20038;-67
2022/04/07 01:55:39;;;;;;;6.50;6.20;;;;;;;7.90;71.55;99831.75;4994726;28;20165;-68
2022/04/07 01:58:05;;;;;;;6.82;6.53;;;;;;;7.74;72.46;99819.47;4995134;28;20045;-68
2022/04/07 02:00:31;;;;;;;7.00;6.70;;;;;;;7.73;72.53;99823.94;5005894;28;20029;-67
2022/04/07 02:02:56;;;;;;;6.35;6.05;;;;;;;7.60;73.20;99821.03;4994634;28;20026;-69
2022/04/07 02:05:22;;;;;;;6.72;6.43;;;;;;;7.70;73.30;99828.72;5003424;28;20026;-68
2022/04/07 02:07:47;;;;;;;6.30;6.00;;;;;;;7.66;73.07;99808.97;5013261;28;20041;-67
2022/04/07 02:10:14;;;;;;;6.70;6.40;;;;;;;7.66;73.09;99819.53;5013799;28;20053;-66
2022/04/07 02:12:41;;;;;;;6.90;6.60;;;;;;;7.61;72.62;99817.38;5014083;28;20041;-67
2022/04/07 02:15:11;;;;;;;6.70;6.40;;;;;;;7.57;73.11;99802.09;5036104;28;20053;-67
2022/04/07 02:17:36;;;;;;;6.88;6.57;;;;;;;7.59;72.89;99810.66;4995552;28;20097;-66
2022/04/07 02:20:05;;;;;;;6.50;6.20;;;;;;;7.56;73.08;99803.88;4994618;28;20041;-66
2022/04/07 02:22:30;;;;;;;6.97;6.68;;;;;;;7.52;73.25;99807.88;4998850;28;20080;-66
2022/04/07 02:24:56;;;;;;;6.57;6.28;;;;;;;7.54;73.46;99811.16;5045485;28;20029;-66
2022/04/07 02:27:22;;;;;;;7.20;6.90;;;;;;;7.54;72.45;99805.06;4981734;28;20409;-67
2022/04/07 02:29:48;;;;;;;6.40;6.10;;;;;;;7.58;73.18;99801.09;4994430;28;20022;-67
2022/04/07 02:32:13;;;;;;;6.40;6.10;;;;;;;7.45;73.36;99796.38;5023895;28;20481;-67
2022/04/07 02:34:39;;;;;;;6.80;6.50;;;;;;;7.51;72.51;99798.31;4993860;28;20026;-67
2022/04/07 02:37:05;;;;;;;6.40;6.10;;;;;;;7.41;73.29;99800.31;4993954;28;20085;-67
2022/04/07 02:39:32;;;;;;;6.50;6.20;;;;;;;7.38;73.02;99793.59;4993984;28;20026;-67
2022/04/07 02:41:58;;;;;;;7.43;7.03;;;;;;;7.43;73.44;99798.34;4993857;28;20498;-67
2022/04/07 02:44:24;;;;;;;6.60;6.30;;;;;;;7.40;73.47;99799.50;4994011;28;20030;-67
2022/04/07 02:46:50;;;;;;;6.70;6.40;;;;;;;7.33;72.97;99782.72;4993697;28;20030;-67
2022/04/07 02:49:15;;;;;;;6.47;6.18;;;;;;;7.28;73.57;99800.91;4998502;28;20441;-68
2022/04/07 02:51:41;;;;;;;6.70;6.40;;;;;;;7.24;73.92;99788.22;5002288;28;20390;-67
2022/04/07 02:54:06;;;;;;;7.00;6.70;;;;;;;7.12;74.26;99779.84;4993801;28;20478;-67
2022/04/07 02:56:32;;;;;;;6.57;6.28;;;;;;;7.09;74.41;99788.91;5007921;28;20137;-68
2022/04/07 02:58:58;;;;;;;6.60;6.30;;;;;;;7.16;74.52;99779.34;5012262;28;20029;-69
2022/04/07 03:01:23;;;;;;;6.55;6.25;;;;;;;7.07;74.48;99788.28;4993384;28;20030;-67
2022/04/07 03:03:50;;;;;;;6.65;6.35;;;;;;;7.28;73.74;99795.63;4993543;28;20114;-67
2022/04/07 03:06:16;;;;;;;7.32;6.97;;;;;;;7.25;73.21;99788.03;5006486;28;20058;-66
2022/04/07 03:08:43;;;;;;;6.60;6.30;;;;;;;7.18;73.67;99776.53;4992539;28;20049;-67
2022/04/07 03:11:09;;;;;;;7.00;6.70;;;;;;;7.13;73.59;99779.69;5012738;28;20034;-68
2022/04/07 03:13:38;;;;;;;7.10;6.80;;;;;;;7.25;73.05;99772.19;5001445;28;20556;-68
2022/04/07 03:16:05;;;;;;;6.78;6.47;;;;;;;7.20;73.07;99771.91;4982536;28;20038;-67
2022/04/07 03:18:31;;;;;;;7.03;6.72;;;;;;;7.23;72.66;99765.47;4985091;28;20048;-67
2022/04/07 03:20:56;;;;;;;6.93;6.63;;;;;;;7.26;72.52;99773.84;5012550;28;20489;-67
2022/04/07 03:23:22;;;;;;;6.85;6.55;;;;;;;7.21;72.98;99765.63;5004003;28;20088;-67
2022/04/07 03:25:48;;;;;;;6.60;6.30;;;;;;;7.22;72.79;99764.66;5009221;28;20038;-66
2022/04/07 03:28:13;;;;;;;6.60;6.30;;;;;;;7.20;73.21;99764.81;5002536;28;20018;-66
2022/04/07 03:30:39;;;;;;;6.70;6.40;;;;;;;7.18;72.81;99763.34;4992490;28;20109;-66
2022/04/07 03:33:06;;;;;;;7.10;6.80;;;;;;;7.16;73.10;99766.16;4998277;28;20076;-67
2022/04/07 03:35:32;;;;;;;7.13;6.72;;;;;;;7.16;73.27;99760.06;4995128;28;20034;-66
2022/04/07 03:37:58;;;;;;;7.00;6.70;;;;;;;7.14;73.49;99759.41;4998293;28;20052;-67
2022/04/07 03:40:27;;;;;;;6.90;6.60;;;;;;;7.08;73.10;99752.19;4983420;28;20026;-68
2022/04/07 03:42:52;;;;;;;6.70;6.40;;;;;;;6.99;73.69;99755.84;5001355;28;20030;-68
2022/04/07 03:45:18;;;;;;;7.47;7.07;;;;;;;7.28;71.79;99761.31;5016537;28;20132;-68
2022/04/07 03:47:44;;;;;;;6.80;6.50;;;;;;;7.06;72.48;99759.44;4994077;28;20030;-67
2022/04/07 03:50:10;;;;;;;6.63;6.32;;;;;;;7.13;71.79;99745.41;4989484;28;20412;-67
2022/04/07 03:52:36;;;;;;;6.57;6.28;;;;;;;7.31;71.62;99753.06;4991662;28;20448;-67
2022/04/07 03:55:06;;;;;;;7.95;7.55;;;;;;;7.55;70.38;99751.28;4989097;28;20072;-67
2022/04/07 03:57:31;;;;;;;7.50;7.10;;;;;;;7.72;70.14;99743.09;5001395;28;20038;-68
2022/04/07 03:59:57;;;;;;;7.65;7.25;;;;;;;7.57;69.86;99749.31;4990431;28;20504;-67
2022/04/07 04:02:24;;;;;;;6.97;6.68;;;;;;;8.02;68.44;99751.94;4990674;28;20060;-73
2022/04/07 04:04:49;;;;;;;7.45;7.05;;;;;;;7.93;67.21;99737.19;4993618;28;20113;-68
2022/04/07 04:07:15;;;;;;;7.05;6.75;;;;;;;8.45;66.30;99752.28;4989849;28;20101;-68
2022/04/07 04:09:40;;;;;;;6.80;6.50;;;;;;;9.16;63.40;99747.34;4999885;28;20045;-69
2022/04/07 04:12:06;;;;;;;7.03;6.72;;;;;;;9.75;61.19;99754.34;4980757;28;20467;-69
2022/04/07 04:14:32;;;;;;;7.30;7.00;;;;;;;8.94;63.53;99749.09;4996861;28;20026;-69
2022/04/07 04:16:58;;;;;;;7.40;7.10;;;;;;;9.50;62.63;99749.41;5019754;28;20045;-69
2022/04/07 04:19:24;;;;;;;7.47;7.18;;;;;;;10.47;58.60;99748.88;4989354;28;20027;-69
2022/04/07 04:21:50;;;;;;;7.35;7.05;;;;;;;12.36;52.45;99752.66;4994279;28;20026;-69
2022/04/07 04:24:15;;;;;;;7.53;7.22;;;;;;;11.33;53.57;99742.22;4993925;28;20031;-69
2022/04/07 04:26:41;;;;;;;7.20;6.90;;;;;;;12.66;49.95;99750.38;4995595;28;20100;-70
2022/04/07 04:29:06;;;;;;;7.30;7.00;;;;;;;14.42;46.63;99761.44;4995659;28;20077;-69
2022/04/07 04:31:32;;;;;;;7.68;7.38;;;;;;;14.88;45.32;99761.00;4997676;28;20033;-70
2022/04/07 04:33:57;;;;;;;7.20;6.90;;;;;;;12.72;48.47;99761.03;5044731;28;20116;-68
2022/04/07 04:36:22;;;;;;;6.88;6.57;;;;;;;14.36;43.94;99756.97;4991947;28;20061;-68
2022/04/07 04:38:49;;;;;;;7.40;7.10;;;;;;;16.71;40.71;99765.09;5003372;28;20470;-69
2022/04/07 04:41:15;;;;;;;7.20;6.90;;;;;;;16.73;39.04;99762.97;5004881;28;20136;-68
2022/04/07 04:43:41;;;;;;;8.75;8.35;;;;;;;16.64;39.97;99764.34;4994282;28;20084;-69
2022/04/07 04:46:07;;;;;;;7.80;7.50;;;;;;;14.55;43.93;99766.69;5002638;28;20481;-68
2022/04/07 04:48:38;;;;;;;7.90;7.60;;;;;;;17.06;38.22;99767.75;4982016;28;20030;-68
2022/04/07 04:51:04;;;;;;;8.00;7.70;;;;;;;18.66;35.19;99765.06;4990837;28;20498;-71
2022/04/07 04:53:29;;;;;;;8.00;7.70;;;;;;;19.17;33.69;99763.88;4992442;28;20025;-71
2022/04/07 04:55:55;;;;;;;8.00;7.70;;;;;;;14.52;42.61;99758.28;4996904;28;20549;-71
2022/04/07 04:58:21;;;;;;;7.90;7.60;;;;;;;15.29;40.33;99753.38;5027900;28;20081;-72
2022/04/07 05:00:47;;;;;;;7.20;6.90;;;;;;;18.77;35.42;99758.75;5005522;28;20523;-71
2022/04/07 05:03:12;;;;;;;7.65;7.35;;;;;;;17.59;36.43;99749.75;5006648;28;20033;-70
2022/04/07 05:05:38;;;;;;;7.97;7.68;;;;;;;19.79;32.21;99750.06;4997517;28;20022;-72
2022/04/07 05:08:04;;;;;;;7.50;7.20;;;;;;;22.12;29.37;99753.53;5008664;28;20116;-72
2022/04/07 05:10:29;;;;;;;8.25;7.95;;;;;;;18.31;34.37;99744.59;4996090;28;20048;-75
2022/04/07 05:12:55;;;;;;;8.15;7.85;;;;;;;17.98;34.36;99747.25;4993526;28;20029;-68
2022/04/07 05:15:20;;;;;;;7.70;7.40;;;;;;;18.51;34.03;99736.06;4996839;28;20033;-72
2022/04/07 05:17:49;;;;;;;7.60;7.30;;;;;;;17.48;35.52;99731.84;4988837;28;20022;-69
2022/04/07 05:20:15;;;;;;;7.80;7.50;;;;;;;20.87;30.48;99732.88;4986500;28;20034;-71
2022/04/07 05:22:41;;;;;;;7.53;7.22;;;;;;;20.82;31.49;99724.75;4994117;28;20507;-72
2022/04/07 05:25:07;;;;;;;7.47;7.18;;;;;;;17.15;35.04;99717.25;4995323;28;20517;-72
2022/04/07 05:27:35;;;;;;;7.75;7.45;;;;;;;21.07;30.01;99721.38;4995156;28;20425;-72
2022/04/07 05:30:00;;;;;;;7.82;7.53;;;;;;;22.05;28.26;99708.66;4994176;28;20047;-72
2022/04/07 05:32:26;;;;;;;7.43;7.13;;;;;;;23.24;26.90;99708.16;4990593;28;20477;-72
2022/04/07 05:34:51;;;;;;;7.70;7.40;;;;;;;24.80;24.99;99711.84;5003942;28;20069;-71
2022/04/07 05:37:17;;;;;;;7.25;6.95;;;;;;;23.48;26.38;99707.50;4994638;28;20022;-72
2022/04/07 05:39:44;;;;;;;7.40;7.10;;;;;;;26.64;22.29;99713.50;5023640;28;20042;-72
2022/04/07 05:42:09;;;;;;;7.20;6.90;;;;;;;27.19;21.37;99727.16;5002169;28;20022;-71
2022/04/07 05:44:35;;;;;;;7.30;7.00;;;;;;;26.15;22.43;99714.13;5003867;28;20038;-72
2022/04/07 05:47:01;;;;;;;7.13;6.82;;;;;;;25.75;22.79;99710.13;4993383;28;20034;-72
2022/04/07 05:49:26;;;;;;;7.45;7.10;;;;;;;24.12;25.07;99712.75;4988469;28;20023;-72
2022/04/07 05:51:54;;;;;;;7.60;7.30;;;;;;;26.56;22.83;99719.66;5005628;28;20035;-72
2022/04/07 05:54:20;;;;;;;7.03;6.72;;;;;;;27.68;21.96;99711.94;4974439;28;20022;-71
2022/04/07 05:56:46;;;;;;;7.60;7.30;;;;;;;27.94;21.38;99712.13;4982372;28;20060;-71
2022/04/07 05:59:11;;;;;;;7.60;7.30;;;;;;;27.95;21.08;99711.03;5014124;28;20046;-72
2022/04/07 06:01:37;;;;;;;7.60;7.30;;;;;;;28.84;20.09;99707.34;4976572;28;20158;-71
2022/04/07 06:04:02;;;;;;;7.30;7.00;;;;;;;27.70;20.41;99709.72;4993764;28;20037;-71
2022/04/07 06:06:28;;;;;;;7.30;7.00;;;;;;;28.02;20.01;99702.41;4994726;28;20034;-71
2022/04/07 06:08:54;;;;;;;7.22;6.93;;;;;;;26.87;21.36;99697.28;4993759;28;20371;-69
2022/04/07 06:11:20;;;;;;;7.22;6.93;;;;;;;27.27;20.70;99699.22;4994401;28;20573;-71
2022/04/07 06:13:46;;;;;;;7.18;6.88;;;;;;;25.77;20.90;99681.53;4991464;28;20053;-71
2022/04/07 06:16:12;;;;;;;7.30;7.00;;;;;;;22.13;24.93;99674.94;4984415;28;20486;-71
2022/04/07 06:18:37;;;;;;;7.47;7.18;;;;;;;23.37;24.58;99687.81;4999369;28;20116;-71
2022/04/07 06:21:03;;;;;;;7.30;7.00;;;;;;;22.85;24.82;99673.72;4989218;28;20065;-70
2022/04/07 06:23:28;;;;;;;7.18;6.88;;;;;;;21.88;25.47;99673.00;5001813;28;20029;-71
2022/04/07 06:25:54;;;;;;;6.90;6.60;;;;;;;19.94;28.56;99665.16;4984389;28;20045;-72
2022/04/07 06:28:22;;;;;;;6.85;6.55;;;;;;;20.63;27.96;99667.78;4973307;28;20329;-71
2022/04/07 06:30:49;;;;;;;7.13;6.82;;;;;;;22.75;25.69;99668.31;4994814;28;20030;-69
2022/04/07 06:33:14;;;;;;;7.30;7.00;;;;;;;23.66;23.89;99663.56;4994462;28;20112;-72
2022/04/07 06:35:41;;;;;;;7.40;7.10;;;;;;;26.79;20.86;99665.34;4992454;28;20057;-71
2022/04/07 06:38:07;;;;;;;7.00;6.70;;;;;;;27.84;19.92;99654.31;4993717;28;20058;-72
2022/04/07 06:40:32;;;;;;;7.10;6.80;;;;;;;27.66;19.72;99654.19;4991718;28;20498;-72
2022/04/07 06:42:59;;;;;;;7.10;6.80;;;;;;;26.55;20.61;99649.22;4992673;28;20026;-71
2022/04/07 06:45:26;;;;;;;7.10;6.80;;;;;;;27.23;20.09;99657.34;4993730;28;20497;-72
2022/04/07 06:47:51;;;;;;;7.25;6.95;;;;;;;28.28;19.60;99648.03;4993627;28;20500;-72
2022/04/07 06:50:18;;;;;;;7.00;6.70;;;;;;;25.61;21.02;99644.84;5025144;28;20113;-73
2022/04/07 06:52:44;;;;;;;6.95;6.65;;;;;;;26.74;20.73;99643.69;4993739;28;20054;-72
2022/04/07 06:55:12;;;;;;;7.07;6.78;;;;;;;23.04;24.49;99643.34;4993601;28;20081;-71
2022/04/07 06:57:51;;;;;;;7.30;7.00;;;;;;;26.06;21.40;99645.19;5003847;28;20505;-73
2022/04/07 07:00:18;;;;;;;7.07;6.78;;;;;;;26.43;21.24;99649.72;5026661;28;20125;-73
2022/04/07 07:02:48;;;;;;;7.25;6.95;;;;;;;26.01;21.57;99640.69;4993124;28;20033;-74
2022/04/07 07:05:14;;;;;;;7.20;6.90;;;;;;;25.73;22.05;99638.97;5024789;28;20030;-73
2022/04/07 07:07:40;;;;;;;7.05;6.75;;;;;;;24.11;23.30;99626.34;4993280;28;20378;-73
2022/04/07 07:10:06;;;;;;;7.10;6.80;;;;;;;27.85;19.60;99634.97;4993545;28;20520;-73
2022/04/07 07:12:31;;;;;;;7.30;7.00;;;;;;;23.88;22.94;99628.72;4993143;28;20106;-73
2022/04/07 07:14:57;;;;;;;6.97;6.68;;;;;;;22.99;24.59;99636.06;4993204;28;20022;-72
2022/04/07 07:17:22;;;;;;;7.07;6.78;;;;;;;24.58;22.88;99628.28;4993217;28;20023;-72
2022/04/07 07:19:47;;;;;;;7.30;7.00;;;;;;;25.32;21.46;99623.28;4992964;28;20449;-72
2022/04/07 07:22:15;;;;;;;7.13;6.82;;;;;;;24.84;22.55;99628.81;4992725;28;20061;-72
2022/04/07 07:24:41;;;;;;;7.32;7.03;;;;;;;23.66;23.12;99614.81;4992975;28;20026;-72
2022/04/07 07:27:06;;;;;;;7.00;6.70;;;;;;;24.60;22.71;99625.28;4992812;28;20544;-71
2022/04/07 07:29:32;;;;;;;7.10;6.80;;;;;;;25.91;21.84;99613.66;4993196;28;20548;-73
2022/04/07 07:31:57;;;;;;;7.10;6.80;;;;;;;24.08;23.42;99621.47;4992959;28;20029;-73
2022/04/07 07:34:23;;;;;;;7.20;6.90;;;;;;;23.74;23.86;99619.63;5010584;28;20037;-73
2022/04/07 07:36:48;;;;;;;7.45;7.15;;;;;;;26.05;21.75;99628.09;5012830;28;20370;-72
2022/04/07 07:39:14;;;;;;;7.45;7.15;;;;;;;24.87;23.00;99624.69;5012332;28;20018;-72
2022/04/07 07:41:41;;;;;;;7.13;6.82;;;;;;;22.82;24.80;99603.91;5002365;28;20172;-72
2022/04/07 07:44:07;;;;;;;6.90;6.60;;;;;;;23.68;24.08;99609.94;5010643;28;20026;-72
2022/04/07 07:46:34;;;;;;;7.45;7.15;;;;;;;24.51;23.39;99617.78;4992076;28;20033;-72
2022/04/07 07:49:01;;;;;;;7.03;6.72;;;;;;;24.07;24.11;99625.28;4992524;28;20041;-73
2022/04/07 07:51:27;;;;;;;7.10;6.80;;;;;;;21.53;26.92;99622.53;4991841;28;20030;-73
2022/04/07 07:53:52;;;;;;;7.50;7.20;;;;;;;21.37;27.53;99621.72;5024080;28;20068;-73
2022/04/07 07:56:18;;;;;;;7.20;6.90;;;;;;;21.54;27.12;99618.75;4992572;28;20038;-73
2022/04/07 07:58:44;;;;;;;7.18;6.88;;;;;;;21.48;27.32;99609.81;5005656;28;20042;-72
2022/04/07 08:01:09;;;;;;;7.05;6.75;;;;;;;21.06;28.13;99623.47;5024130;28;20030;-72
2022/04/07 08:03:35;;;;;;;7.32;7.03;;;;;;;20.47;28.94;99609.50;5024097;28;20034;-72
2022/04/07 08:06:01;;;;;;;7.60;7.30;;;;;;;21.19;27.81;99603.28;4991459;28;20034;-72
2022/04/07 08:08:27;;;;;;;6.82;6.53;;;;;;;22.37;26.50;99607.59;4992531;28;20423;-73
2022/04/07 08:10:52;;;;;;;7.40;7.10;;;;;;;23.13;25.75;99611.91;4992079;28;20032;-72
2022/04/07 08:13:18;;;;;;;7.18;6.88;;;;;;;23.22;25.79;99596.72;4992230;28;20371;-72
2022/04/07 08:15:43;;;;;;;7.25;6.95;;;;;;;22.19;27.08;99600.91;5023669;28;20081;-72
2022/04/07 08:18:08;;;;;;;7.28;6.97;;;;;;;22.65;26.70;99592.66;4992051;28;20101;-72
2022/04/07 08:20:34;;;;;;;7.03;6.72;;;;;;;21.21;28.61;99579.53;4992010;28;20058;-72
2022/04/07 08:23:00;;;;;;;7.50;7.20;;;;;;;21.53;28.18;99592.84;4990930;28;20030;-71
2022/04/07 08:25:25;;;;;;;7.30;7.00;;;;;;;20.34;30.16;99594.59;5023581;28;20549;-72
2022/04/07 08:27:51;;;;;;;7.15;6.85;;;;;;;19.57;31.25;99593.25;5019963;28;20027;-72
2022/04/07 08:30:16;;;;;;;7.38;7.07;;;;;;;18.40;32.42;99575.84;4972630;28;20046;-72
2022/04/07 08:32:42;;;;;;;7.50;7.20;;;;;;;17.84;33.73;99578.53;4992518;28;20091;-72
2022/04/07 08:35:10;;;;;;;7.32;7.03;;;;;;;18.28;33.58;99592.03;5011403;28;20113;-72
2022/04/07 08:37:37;;;;;;;7.13;6.82;;;;;;;18.42;33.36;99582.56;5011889;28;20033;-72
2022/04/07 08:40:07;;;;;;;7.70;7.40;;;;;;;18.59;33.19;99579.03;5010228;28;20478;-72
2022/04/07 08:42:34;;;;;;;7.50;7.20;;;;;;;18.54;33.39;99573.59;5030156;28;20045;-72
2022/04/07 08:45:00;;;;;;;7.28;6.97;;;;;;;19.14;32.60;99588.78;5023162;28;20034;-72
2022/04/07 08:47:26;;;;;;;7.20;6.90;;;;;;;18.46;33.38;99574.84;4991322;28;20126;-72
2022/04/07 08:49:51;;;;;;;7.20;6.90;;;;;;;18.44;33.64;99558.16;4991670;28;20015;-72
2022/04/07 08:52:18;;;;;;;7.00;6.70;;;;;;;17.75;34.74;99563.09;4990750;28;20058;-71
2022/04/07 08:54:47;;;;;;;7.63;7.32;;;;;;;17.65;35.08;99553.81;4992000;28;20102;-72
2022/04/07 08:57:14;;;;;;;7.10;6.80;;;;;;;17.58;35.25;99547.00;4999067;28;20045;-73
2022/04/07 08:59:40;;;;;;;7.10;6.80;;;;;;;17.79;34.83;99551.66;5007354;28;20526;-73
2022/04/07 09:02:09;;;;;;;6.90;6.60;;;;;;;17.80;35.13;99531.00;4992098;28;20034;-72
2022/04/07 09:04:39;;;;;;;6.80;6.50;;;;;;;17.70;35.15;99531.63;4991881;28;20057;-72
2022/04/07 09:07:07;;;;;;;7.30;7.00;;;;;;;17.64;35.48;99538.78;4991888;28;20474;-71
2022/04/07 09:09:34;;;;;;;6.93;6.63;;;;;;;17.76;35.61;99525.28;4991691;28;20018;-73
2022/04/07 09:11:59;;;;;;;7.38;7.07;;;;;;;17.89;35.07;99521.47;4991750;28;20018;-72
2022/04/07 09:14:26;;;;;;;6.88;6.57;;;;;;;17.90;35.17;99507.78;4990547;28;20425;-72
2022/04/07 09:16:55;;;;;;;6.65;6.35;;;;;;;18.17;34.81;99513.25;4993351;28;20053;-72
2022/04/07 09:19:24;;;;;;;7.00;6.70;;;;;;;18.70;34.05;99510.94;4995221;28;20046;-72
2022/04/07 09:22:11;;;;;;;7.40;7.10;;;;;;;19.15;33.64;99505.19;5026762;28;20027;-72
2022/04/07 09:24:38;;;;;;;6.70;6.40;;;;;;;17.84;35.35;99484.63;4995268;28;20034;-72
2022/04/07 09:27:06;;;;;;;7.18;6.88;;;;;;;17.87;35.46;99507.50;4995122;28;20053;-72
2022/04/07 09:29:43;;;;;;;7.45;7.15;;;;;;;17.60;35.82;99477.81;4978348;28;20027;-72
2022/04/07 09:32:21;;;;;;;7.15;6.85;;;;;;;17.56;35.78;99492.81;4975396;28;20090;-72
2022/04/07 09:34:53;;;;;;;7.65;7.35;;;;;;;17.78;35.87;99480.28;5014759;28;20037;-72
2022/04/07 09:37:24;;;;;;;7.20;6.90;;;;;;;18.52;34.30;99463.72;5014806;28;20025;-72
2022/04/07 09:40:02;;;;;;;6.90;6.60;;;;;;;18.29;34.29;99432.59;5014585;28;20466;-72
2022/04/07 09:42:29;;;;;;;7.13;6.82;;;;;;;18.38;33.86;99470.56;4993467;28;20027;-72
2022/04/07 09:44:59;;;;;;;7.25;6.85;;;;;;;18.81;32.89;99439.34;4994795;28;20026;-71
2022/04/07 09:47:39;;;;;;;6.95;6.65;;;;;;;19.21;32.47;99446.91;4994237;28;20030;-72
2022/04/07 09:50:29;;;;;;;7.15;6.85;;;;;;;19.03;31.79;99435.50;4994421;28;20027;-72
2022/04/07 09:53:07;;;;;;;6.85;6.55;;;;;;;19.45;31.77;99417.75;4994498;28;20034;-72
2022/04/07 09:55:41;;;;;;;7.10;6.80;;;;;;;19.03;31.75;99414.00;4994462;28;20470;-73
2022/04/07 09:58:08;;;;;;;;;;;;;;;18.78;32.13;99416.44;5004278;28;20054;-72
2022/04/07 10:00:34;;;;;;;7.05;6.75;;;;;;;18.71;32.09;99405.91;5014114;28;19936;-72
2022/04/07 10:03:02;;;;;;;7.00;6.70;;;;;;;18.90;31.64;99400.97;5014186;28;20438;-71
2022/04/07 10:05:30;;;;;;;7.13;6.82;;;;;;;18.92;31.39;99411.47;5014073;28;20482;-71
2022/04/07 10:07:58;;;;;;;7.75;7.45;;;;;;;18.57;32.53;99399.31;5006786;28;20117;-71
2022/04/07 10:10:24;;;;;;;6.93;6.63;;;;;;;18.38;33.03;99393.50;4994326;28;20080;-72
2022/04/07 10:12:51;;;;;;;6.90;6.60;;;;;;;18.01;32.86;99374.59;4994321;28;20032;-72
2022/04/07 10:15:17;;;;;;;7.13;6.82;;;;;;;18.00;32.17;99356.06;4994382;28;20137;-72
2022/04/07 10:17:43;;;;;;;6.90;6.60;;;;;;;18.38;32.29;99377.38;4993010;28;20034;-72
2022/04/07 10:20:12;;;;;;;6.68;6.38;;;;;;;18.31;32.53;99366.03;4994250;28;20069;-72
2022/04/07 10:22:55;;;;;;;7.28;6.97;;;;;;;18.08;33.19;99358.28;4994065;28;20045;-72
2022/04/07 10:25:23;;;;;;;7.07;6.78;;;;;;;18.21;32.96;99352.50;4993904;28;20040;-70
2022/04/07 10:27:54;;;;;;;7.10;6.80;;;;;;;17.73;32.86;99380.94;4993282;28;20022;-71
2022/04/07 10:30:21;;;;;;;6.97;6.68;;;;;;;18.01;33.05;99350.44;4994130;28;20228;-71
2022/04/07 10:32:49;;;;;;;7.07;6.78;;;;;;;18.07;32.78;99344.06;5031195;28;20521;-72
2022/04/07 10:35:34;;;;;;;6.97;6.68;;;;;;;17.72;33.02;99336.41;5044961;28;20099;-72
2022/04/07 10:38:00;;;;;;;;;;;;;;;17.86;32.87;99343.03;5032071;28;20116;-72
2022/04/07 10:40:33;;;;;;;6.78;6.47;;;;;;;17.98;33.15;99347.41;4992454;28;19917;-72
2022/04/07 10:43:10;;;;;;;7.07;6.78;;;;;;;18.26;33.02;99332.94;5000438;28;20101;-71
2022/04/07 10:45:38;;;;;;;7.00;6.70;;;;;;;17.92;33.67;99339.34;5025621;28;20034;-72
2022/04/07 10:48:19;;;;;;;7.00;6.70;;;;;;;18.35;32.62;99324.19;4993099;28;20022;-72
2022/04/07 10:50:52;;;;;;;8.20;7.80;;;;;;;18.30;32.53;99318.78;4993407;28;20037;-71
2022/04/07 10:53:24;;;;;;;7.07;6.78;;;;;;;18.42;32.66;99330.16;5024884;28;20148;-72
2022/04/07 10:56:02;;;;;;;7.00;6.70;;;;;;;18.08;32.34;99320.72;4993440;28;20430;-71
2022/04/07 10:58:40;;;;;;;6.70;6.40;;;;;;;18.03;31.60;99299.19;4993119;28;20038;-72
2022/04/07 11:01:06;;;;;;;6.70;6.40;;;;;;;18.20;31.22;99329.41;4993605;28;20095;-72
2022/04/07 11:03:32;;;;;;;8.05;7.68;;;;;;;18.05;31.33;99299.72;4992922;28;20489;-71
2022/04/07 11:06:06;;;;;;;6.93;6.63;;;;;;;17.97;30.43;99278.72;4993897;28;20054;-72
2022/04/07 11:08:33;;;;;;;7.22;6.93;;;;;;;17.97;30.50;99284.91;4992153;28;20500;-74
2022/04/07 11:10:58;;;;;;;6.78;6.47;;;;;;;18.10;30.64;99297.91;4993306;28;20122;-72
2022/04/07 11:13:42;;;;;;;7.13;6.82;;;;;;;18.23;30.76;99281.41;4991957;28;20109;-72
2022/04/07 11:16:18;;;;;;;7.10;6.80;;;;;;;18.26;30.36;99288.13;4993503;28;20027;-71
2022/04/07 11:18:49;;;;;;;7.40;7.10;;;;;;;18.29;30.16;99287.63;4992897;28;20022;-71
2022/04/07 11:21:21;;;;;;;6.80;6.50;;;;;;;18.25;30.42;99269.59;4993443;28;20162;-71
2022/04/07 11:23:52;;;;;;;7.22;6.93;;;;;;;18.13;30.15;99277.81;5024440;28;20029;-71
2022/04/07 11:26:26;;;;;;;7.00;6.70;;;;;;;17.90;30.12;99287.78;4993077;28;20098;-71
2022/04/07 11:29:11;;;;;;;6.90;6.60;;;;;;;17.82;29.66;99271.34;5013120;28;20039;-72
2022/04/07 11:31:45;;;;;;;;;;;;;;;18.06;29.97;99283.38;4974125;28;20226;-73
2022/04/07 11:34:35;;;;;;;6.80;6.50;;;;;;;17.95;29.86;99265.56;4995018;28;19913;-72
2022/04/07 11:37:06;;;;;;;6.93;6.63;;;;;;;17.80;29.71;99255.50;5024487;28;20061;-71